sensor_id;sensor_type;location;lat;lon;timestamp;pressure;altitude;pressure_sealevel;temperature;humidity
59272;BME280;45043;51.068;7.026;2023-03-25T00:01:23;99329.31;;;5.81;60.44
59272;BME280;45043;51.068;7.026;2023-03-25T00:04:25;99326.94;;;5.86;59.88
59272;BME280;45043;51.068;7.026;2023-03-25T00:07:26;99324.91;;;5.88;59.90
59272;BME280;45043;51.068;7.026;2023-03-25T00:10:26;99326.94;;;5.86;59.44
59272;BME280;45043;51.068;7.026;2023-03-25T00:13:27;99326.94;;;5.86;59.35
59272;BME280;45043;51.068;7.026;2023-03-25T00:16:30;99319.41;;;5.83;58.89
59272;BME280;45043;51.068;7.026;2023-03-25T00:19:32;99325.69;;;5.82;59.06
59272;BME280;45043;51.068;7.026;2023-03-25T00:22:33;99305.44;;;5.83;58.79
59272;BME280;45043;51.068;7.026;2023-03-25T00:25:35;99313.94;;;5.85;58.74
59272;BME280;45043;51.068;7.026;2023-03-25T00:28:37;99315.78;;;5.84;58.76
59272;BME280;45043;51.068;7.026;2023-03-25T00:31:38;99325.69;;;5.82;58.89
59272;BME280;45043;51.068;7.026;2023-03-25T00:34:39;99322.44;;;5.80;58.81
59272;BME280;45043;51.068;7.026;2023-03-25T00:37:41;99323.84;;;5.76;58.61
59272;BME280;45043;51.068;7.026;2023-03-25T00:40:42;99305.19;;;5.78;58.41
59272;BME280;45043;51.068;7.026;2023-03-25T00:43:43;99326.09;;;5.79;58.24
59272;BME280;45043;51.068;7.026;2023-03-25T00:46:44;99302.16;;;5.81;58.14
59272;BME280;45043;51.068;7.026;2023-03-25T00:49:45;99305.44;;;5.83;58.11
59272;BME280;45043;51.068;7.026;2023-03-25T00:52:46;99303.22;;;5.86;57.98
59272;BME280;45043;51.068;7.026;2023-03-25T00:55:46;99320.03;;;5.85;57.87
59272;BME280;45043;51.068;7.026;2023-03-25T00:58:47;99319.22;;;5.85;57.22
59272;BME280;45043;51.068;7.026;2023-03-25T01:01:47;99313.94;;;5.85;57.06
59272;BME280;45043;51.068;7.026;2023-03-25T01:04:48;99309.47;;;5.85;56.83
59272;BME280;45043;51.068;7.026;2023-03-25T01:07:49;99306.25;;;5.83;56.87
59272;BME280;45043;51.068;7.026;2023-03-25T01:10:52;99323.44;;;5.79;56.45
59272;BME280;45043;51.068;7.026;2023-03-25T01:13:56;99300.16;;;5.83;56.36
59272;BME280;45043;51.068;7.026;2023-03-25T01:16:59;99298.34;;;5.83;56.17
59272;BME280;45043;51.068;7.026;2023-03-25T01:20:03;99298.94;;;5.85;56.06
59272;BME280;45043;51.068;7.026;2023-03-25T01:23:08;99304.22;;;5.85;56.15
59272;BME280;45043;51.068;7.026;2023-03-25T01:26:09;99304.22;;;5.85;56.10
59272;BME280;45043;51.068;7.026;2023-03-25T01:29:15;99304.22;;;5.85;55.71
59272;BME280;45043;51.068;7.026;2023-03-25T01:32:15;99300.19;;;5.89;55.81
59272;BME280;45043;51.068;7.026;2023-03-25T01:35:16;99302.22;;;5.87;55.54
59272;BME280;45043;51.068;7.026;2023-03-25T01:38:17;99316.00;;;5.89;55.82
59272;BME280;45043;51.068;7.026;2023-03-25T01:41:17;99304.84;;;5.87;55.70
59272;BME280;45043;51.068;7.026;2023-03-25T01:47:18;99311.47;;;5.77;56.27
59272;BME280;45043;51.068;7.026;2023-03-25T01:50:19;99299.47;;;5.74;56.72
59272;BME280;45043;51.068;7.026;2023-03-25T01:53:20;99307.22;;;5.76;56.53
59272;BME280;45043;51.068;7.026;2023-03-25T01:56:26;99291.56;;;5.74;56.62
59272;BME280;45043;51.068;7.026;2023-03-25T01:59:30;99281.03;;;5.74;56.85
59272;BME280;45043;51.068;7.026;2023-03-25T02:02:30;99265.59;;;5.71;56.96
59272;BME280;45043;51.068;7.026;2023-03-25T02:06:03;99273.72;;;5.70;56.53
59272;BME280;45043;51.068;7.026;2023-03-25T02:09:06;99286.47;;;5.66;56.64
59272;BME280;45043;51.068;7.026;2023-03-25T02:12:08;99291.31;;;5.62;56.93
59272;BME280;45043;51.068;7.026;2023-03-25T02:15:09;99273.69;;;5.63;56.72
59272;BME280;45043;51.068;7.026;2023-03-25T02:18:19;99261.31;;;5.63;56.54
59272;BME280;45043;51.068;7.026;2023-03-25T02:21:37;99265.78;;;5.63;56.65
59272;BME280;45043;51.068;7.026;2023-03-25T02:25:00;99268.56;;;5.55;56.69
59272;BME280;45043;51.068;7.026;2023-03-25T02:28:14;99280.13;;;5.54;57.29
59272;BME280;45043;51.068;7.026;2023-03-25T02:31:53;99283.31;;;5.49;57.64
59272;BME280;45043;51.068;7.026;2023-03-25T02:35:09;99277.00;;;5.44;58.38
59272;BME280;45043;51.068;7.026;2023-03-25T02:38:37;99290.38;;;5.42;58.87
59272;BME280;45043;51.068;7.026;2023-03-25T02:41:57;99277.00;;;5.44;59.30
59272;BME280;45043;51.068;7.026;2023-03-25T02:45:26;99266.66;;;5.42;59.40
59272;BME280;45043;51.068;7.026;2023-03-25T02:48:34;99269.44;;;5.34;59.76
59272;BME280;45043;51.068;7.026;2023-03-25T02:51:44;99281.19;;;5.31;60.23
59272;BME280;45043;51.068;7.026;2023-03-25T02:54:47;99279.53;;;5.30;59.96
59272;BME280;45043;51.068;7.026;2023-03-25T02:57:51;99278.72;;;5.30;60.29
59272;BME280;45043;51.068;7.026;2023-03-25T03:00:56;99271.88;;;5.35;60.15
59272;BME280;45043;51.068;7.026;2023-03-25T03:03:58;99281.03;;;5.39;59.89
59272;BME280;45043;51.068;7.026;2023-03-25T03:06:58;99286.47;;;5.38;59.79
59272;BME280;45043;51.068;7.026;2023-03-25T03:10:18;99288.06;;;5.32;60.28
59272;BME280;45043;51.068;7.026;2023-03-25T03:20:40;99281.94;;;5.25;60.34
59272;BME280;45043;51.068;7.026;2023-03-25T03:23:58;99283.09;;;5.23;60.35
59272;BME280;45043;51.068;7.026;2023-03-25T03:30:31;99256.97;;;5.21;60.47
59272;BME280;45043;51.068;7.026;2023-03-25T03:33:44;99263.63;;;5.17;60.37
59272;BME280;45043;51.068;7.026;2023-03-25T03:36:49;99271.69;;;5.15;60.59
59272;BME280;45043;51.068;7.026;2023-03-25T03:39:53;99253.25;;;5.15;60.30
59272;BME280;45043;51.068;7.026;2023-03-25T03:43:02;99265.44;;;5.16;60.43
59272;BME280;45043;51.068;7.026;2023-03-25T03:46:13;99279.03;;;5.20;60.22
59272;BME280;45043;51.068;7.026;2023-03-25T03:49:18;99276.19;;;5.22;60.19
59272;BME280;45043;51.068;7.026;2023-03-25T03:52:25;99266.31;;;5.24;60.26
59272;BME280;45043;51.068;7.026;2023-03-25T03:55:31;99275.28;;;5.29;59.84
59272;BME280;45043;51.068;7.026;2023-03-25T03:58:39;99283.19;;;5.29;60.00
59272;BME280;45043;51.068;7.026;2023-03-25T04:01:45;99273.06;;;5.33;59.78
59272;BME280;45043;51.068;7.026;2023-03-25T04:04:46;99292.91;;;5.29;59.55
59272;BME280;45043;51.068;7.026;2023-03-25T04:07:52;99276.28;;;5.28;59.46
59272;BME280;45043;51.068;7.026;2023-03-25T04:11:09;99280.28;;;5.24;59.25
59272;BME280;45043;51.068;7.026;2023-03-25T04:14:11;99283.91;;;5.23;59.72
59272;BME280;45043;51.068;7.026;2023-03-25T04:17:12;99284.31;;;5.20;58.91
59272;BME280;45043;51.068;7.026;2023-03-25T04:20:15;99287.53;;;5.22;59.40
59272;BME280;45043;51.068;7.026;2023-03-25T04:23:16;99269.69;;;5.17;59.65
59272;BME280;45043;51.068;7.026;2023-03-25T04:26:16;99301.88;;;5.19;59.33
59272;BME280;45043;51.068;7.026;2023-03-25T04:29:17;99298.44;;;5.19;58.99
59272;BME280;45043;51.068;7.026;2023-03-25T04:32:18;99287.91;;;5.19;58.67
59272;BME280;45043;51.068;7.026;2023-03-25T04:35:18;99288.13;;;5.17;59.06
59272;BME280;45043;51.068;7.026;2023-03-25T04:38:19;99292.75;;;5.15;58.54
59272;BME280;45043;51.068;7.026;2023-03-25T04:41:23;99279.41;;;5.17;58.87
59272;BME280;45043;51.068;7.026;2023-03-25T04:44:23;99298.00;;;5.15;58.68
59272;BME280;45043;51.068;7.026;2023-03-25T04:47:25;99285.06;;;5.14;58.45
59272;BME280;45043;51.068;7.026;2023-03-25T04:50:28;99288.94;;;5.18;58.19
59272;BME280;45043;51.068;7.026;2023-03-25T04:53:29;99275.31;;;5.14;58.22
59272;BME280;45043;51.068;7.026;2023-03-25T04:56:29;99283.38;;;5.06;57.87
59272;BME280;45043;51.068;7.026;2023-03-25T04:59:29;99276.94;;;5.15;57.87
59272;BME280;45043;51.068;7.026;2023-03-25T05:02:30;99255.44;;;5.12;57.80
59272;BME280;45043;51.068;7.026;2023-03-25T05:05:31;99271.94;;;5.21;57.42
59272;BME280;45043;51.068;7.026;2023-03-25T05:08:32;99269.31;;;5.21;57.57
59272;BME280;45043;51.068;7.026;2023-03-25T05:11:34;99265.22;;;5.18;57.41
59272;BME280;45043;51.068;7.026;2023-03-25T05:14:36;99284.03;;;5.15;57.67
59272;BME280;45043;51.068;7.026;2023-03-25T05:17:37;99255.50;;;5.18;57.35
59272;BME280;45043;51.068;7.026;2023-03-25T05:20:39;99268.69;;;5.18;57.00
59272;BME280;45043;51.068;7.026;2023-03-25T05:23:39;99294.00;;;5.19;57.07
59272;BME280;45043;51.068;7.026;2023-03-25T05:26:41;99277.22;;;5.21;56.84
59272;BME280;45043;51.068;7.026;2023-03-25T05:29:42;99292.00;;;5.22;57.20
59272;BME280;45043;51.068;7.026;2023-03-25T05:32:43;99268.09;;;5.23;56.90
59272;BME280;45043;51.068;7.026;2023-03-25T05:35:45;99278.84;;;5.22;56.75
59272;BME280;45043;51.068;7.026;2023-03-25T05:38:45;99281.19;;;5.31;56.73
59272;BME280;45043;51.068;7.026;2023-03-25T05:41:45;99279.41;;;5.38;56.40
59272;BME280;45043;51.068;7.026;2023-03-25T05:44:46;99288.13;;;5.39;56.53
59272;BME280;45043;51.068;7.026;2023-03-25T05:47:50;99283.72;;;5.53;56.17
59272;BME280;45043;51.068;7.026;2023-03-25T05:50:51;99291.91;;;5.58;55.82
59272;BME280;45043;51.068;7.026;2023-03-25T05:53:55;99284.03;;;5.64;55.97
59272;BME280;45043;51.068;7.026;2023-03-25T05:56:56;99283.06;;;5.72;56.01
59272;BME280;45043;51.068;7.026;2023-03-25T05:59:56;99286.84;;;5.63;55.78
59272;BME280;45043;51.068;7.026;2023-03-25T06:02:56;99309.81;;;5.69;55.78
59272;BME280;45043;51.068;7.026;2023-03-25T06:05:58;99290.78;;;5.74;56.45
59272;BME280;45043;51.068;7.026;2023-03-25T06:09:00;99298.50;;;6.23;56.89
59272;BME280;45043;51.068;7.026;2023-03-25T06:12:02;99296.84;;;6.70;55.75
59272;BME280;45043;51.068;7.026;2023-03-25T06:15:07;99296.91;;;7.03;54.60
59272;BME280;45043;51.068;7.026;2023-03-25T06:18:08;99280.25;;;7.23;54.13
59272;BME280;45043;51.068;7.026;2023-03-25T06:21:09;99292.84;;;7.41;53.40
59272;BME280;45043;51.068;7.026;2023-03-25T06:24:10;99292.84;;;7.54;53.24
59272;BME280;45043;51.068;7.026;2023-03-25T06:27:15;99291.59;;;7.63;53.10
59272;BME280;45043;51.068;7.026;2023-03-25T06:30:19;99295.28;;;7.62;53.49
59272;BME280;45043;51.068;7.026;2023-03-25T06:33:20;99290.38;;;7.66;53.83
59272;BME280;45043;51.068;7.026;2023-03-25T06:36:20;99279.81;;;7.66;54.16
59272;BME280;45043;51.068;7.026;2023-03-25T06:39:20;99288.78;;;7.65;54.44
59272;BME280;45043;51.068;7.026;2023-03-25T06:42:22;99291.19;;;7.66;54.64
59272;BME280;45043;51.068;7.026;2023-03-25T06:45:43;99303.19;;;7.62;54.94
59272;BME280;45043;51.068;7.026;2023-03-25T06:48:57;99288.78;;;7.65;54.00
59272;BME280;45043;51.068;7.026;2023-03-25T06:51:57;99287.75;;;7.59;54.71
59272;BME280;45043;51.068;7.026;2023-03-25T06:54:58;99274.94;;;7.56;54.03
59272;BME280;45043;51.068;7.026;2023-03-25T06:57:58;99287.94;;;7.64;53.78
59272;BME280;45043;51.068;7.026;2023-03-25T07:01:03;99285.91;;;7.66;53.22
59272;BME280;45043;51.068;7.026;2023-03-25T07:04:06;99318.84;;;7.64;53.14
59272;BME280;45043;51.068;7.026;2023-03-25T07:07:07;99305.03;;;7.68;53.01
59272;BME280;45043;51.068;7.026;2023-03-25T07:10:11;99314.81;;;7.61;52.64
59272;BME280;45043;51.068;7.026;2023-03-25T07:13:11;99310.69;;;7.72;52.89
59272;BME280;45043;51.068;7.026;2023-03-25T07:16:12;99348.09;;;7.75;52.64
59272;BME280;45043;51.068;7.026;2023-03-25T07:19:12;99322.28;;;7.91;52.03
59272;BME280;45043;51.068;7.026;2023-03-25T07:22:13;99318.38;;;8.00;51.73
59272;BME280;45043;51.068;7.026;2023-03-25T07:25:14;99324.06;;;8.03;51.39
59272;BME280;45043;51.068;7.026;2023-03-25T07:28:15;99336.25;;;8.11;51.24
59272;BME280;45043;51.068;7.026;2023-03-25T07:31:19;99340.50;;;8.19;50.89
59272;BME280;45043;51.068;7.026;2023-03-25T07:34:20;99324.00;;;8.23;50.97
59272;BME280;45043;51.068;7.026;2023-03-25T07:37:20;99307.72;;;8.26;51.04
59272;BME280;45043;51.068;7.026;2023-03-25T07:40:20;99318.50;;;8.31;51.32
59272;BME280;45043;51.068;7.026;2023-03-25T07:43:21;99325.59;;;8.38;51.14
59272;BME280;45043;51.068;7.026;2023-03-25T07:46:27;99322.78;;;8.32;51.09
59272;BME280;45043;51.068;7.026;2023-03-25T07:49:28;99319.72;;;8.36;51.39
59272;BME280;45043;51.068;7.026;2023-03-25T07:52:28;99334.19;;;8.26;50.78
59272;BME280;45043;51.068;7.026;2023-03-25T07:55:29;99345.38;;;8.35;51.27
59272;BME280;45043;51.068;7.026;2023-03-25T07:58:29;99344.75;;;8.33;51.25
59272;BME280;45043;51.068;7.026;2023-03-25T08:01:30;99335.78;;;8.34;51.12
59272;BME280;45043;51.068;7.026;2023-03-25T08:04:30;99337.25;;;8.23;51.15
59272;BME280;45043;51.068;7.026;2023-03-25T08:07:32;99339.53;;;7.93;51.69
59272;BME280;45043;51.068;7.026;2023-03-25T08:10:36;99341.41;;;7.73;51.91
59272;BME280;45043;51.068;7.026;2023-03-25T08:13:42;99361.16;;;7.57;52.59
59272;BME280;45043;51.068;7.026;2023-03-25T08:16:45;99364.38;;;7.46;52.63
59272;BME280;45043;51.068;7.026;2023-03-25T08:19:46;99401.00;;;7.35;52.34
59272;BME280;45043;51.068;7.026;2023-03-25T08:22:47;99361.34;;;7.35;52.53
59272;BME280;45043;51.068;7.026;2023-03-25T08:25:48;99380.03;;;7.41;52.52
59272;BME280;45043;51.068;7.026;2023-03-25T08:28:49;99377.00;;;7.44;52.18
59272;BME280;45043;51.068;7.026;2023-03-25T08:31:50;99384.53;;;7.47;52.23
59272;BME280;45043;51.068;7.026;2023-03-25T08:34:51;99363.19;;;7.55;52.23
59272;BME280;45043;51.068;7.026;2023-03-25T08:37:51;99379.03;;;7.55;52.08
59272;BME280;45043;51.068;7.026;2023-03-25T08:40:52;99373.34;;;7.45;52.09
59272;BME280;45043;51.068;7.026;2023-03-25T08:43:52;99381.66;;;7.42;52.11
59272;BME280;45043;51.068;7.026;2023-03-25T08:46:53;99378.63;;;7.31;52.29
59272;BME280;45043;51.068;7.026;2023-03-25T08:49:53;99390.03;;;7.39;52.28
59272;BME280;45043;51.068;7.026;2023-03-25T08:52:56;99394.69;;;7.50;52.12
59272;BME280;45043;51.068;7.026;2023-03-25T08:55:58;99393.47;;;7.52;52.04
59272;BME280;45043;51.068;7.026;2023-03-25T08:58:58;99387.78;;;7.49;51.59
59272;BME280;45043;51.068;7.026;2023-03-25T09:01:59;99375.78;;;7.53;51.68
59272;BME280;45043;51.068;7.026;2023-03-25T09:05:00;99369.69;;;7.59;51.62
59272;BME280;45043;51.068;7.026;2023-03-25T09:08:01;99372.94;;;7.61;51.29
59272;BME280;45043;51.068;7.026;2023-03-25T09:11:02;99375.38;;;7.56;51.28
59272;BME280;45043;51.068;7.026;2023-03-25T09:14:03;99374.75;;;7.60;51.37
59272;BME280;45043;51.068;7.026;2023-03-25T09:17:05;99377.81;;;7.71;50.76
59272;BME280;45043;51.068;7.026;2023-03-25T09:20:06;99378.00;;;7.82;50.46
59272;BME280;45043;51.068;7.026;2023-03-25T09:23:08;99387.97;;;7.80;50.01
59272;BME280;45043;51.068;7.026;2023-03-25T09:26:09;99421.31;;;7.81;49.90
59272;BME280;45043;51.068;7.026;2023-03-25T09:29:10;99403.41;;;7.90;49.81
59272;BME280;45043;51.068;7.026;2023-03-25T09:32:10;99396.50;;;7.96;49.45
59272;BME280;45043;51.068;7.026;2023-03-25T09:35:11;99385.91;;;8.09;49.31
59272;BME280;45043;51.068;7.026;2023-03-25T09:38:12;99374.91;;;8.12;48.89
59272;BME280;45043;51.068;7.026;2023-03-25T09:41:56;99387.75;;;8.02;48.49
59272;BME280;45043;51.068;7.026;2023-03-25T09:45:22;99396.91;;;8.06;48.46
59272;BME280;45043;51.068;7.026;2023-03-25T09:48:42;99393.22;;;8.07;48.30
59272;BME280;45043;51.068;7.026;2023-03-25T09:51:45;99376.94;;;8.23;47.91
59272;BME280;45043;51.068;7.026;2023-03-25T09:54:56;99440.00;;;8.33;47.74
59272;BME280;45043;51.068;7.026;2023-03-25T10:22:17;99371.63;;;8.23;47.45
59272;BME280;45043;51.068;7.026;2023-03-25T10:25:24;99374.91;;;8.25;47.69
59272;BME280;45043;51.068;7.026;2023-03-25T10:28:32;99370.00;;;8.36;47.85
59272;BME280;45043;51.068;7.026;2023-03-25T10:31:50;99396.47;;;8.36;47.86
59272;BME280;45043;51.068;7.026;2023-03-25T10:34:51;99420.91;;;8.24;48.48
59272;BME280;45043;51.068;7.026;2023-03-25T10:37:57;99419.66;;;8.20;48.58
59272;BME280;45043;51.068;7.026;2023-03-25T10:44:11;99423.97;;;7.81;48.34
59272;BME280;45043;51.068;7.026;2023-03-25T10:47:15;99422.56;;;7.66;48.47
59272;BME280;45043;51.068;7.026;2023-03-25T10:50:18;99392.06;;;7.50;49.29
59272;BME280;45043;51.068;7.026;2023-03-25T10:53:23;99420.06;;;7.24;49.61
59272;BME280;45043;51.068;7.026;2023-03-25T10:56:30;99414.16;;;7.22;49.50
59272;BME280;45043;51.068;7.026;2023-03-25T10:59:36;99441.16;;;7.11;49.96
59272;BME280;45043;51.068;7.026;2023-03-25T11:02:43;99427.78;;;7.13;50.02
59272;BME280;45043;51.068;7.026;2023-03-25T11:05:44;99415.56;;;7.11;49.82
59272;BME280;45043;51.068;7.026;2023-03-25T11:09:09;99419.25;;;7.17;49.70
59272;BME280;45043;51.068;7.026;2023-03-25T11:12:17;99440.56;;;7.22;49.29
59272;BME280;45043;51.068;7.026;2023-03-25T11:15:21;99407.69;;;7.31;49.27
59272;BME280;45043;51.068;7.026;2023-03-25T11:18:33;99464.00;;;7.39;48.76
59272;BME280;45043;51.068;7.026;2023-03-25T11:21:35;99453.44;;;7.39;48.68
59272;BME280;45043;51.068;7.026;2023-03-25T11:24:41;99432.91;;;7.47;48.73
59272;BME280;45043;51.068;7.026;2023-03-25T11:27:51;99429.06;;;7.50;48.97
59272;BME280;45043;51.068;7.026;2023-03-25T11:31:27;99406.47;;;7.47;49.50
59272;BME280;45043;51.068;7.026;2023-03-25T11:34:30;99422.75;;;7.51;49.60
59272;BME280;45043;51.068;7.026;2023-03-25T11:37:36;99430.69;;;7.51;50.07
59272;BME280;45043;51.068;7.026;2023-03-25T11:41:02;99460.34;;;7.40;50.16
59272;BME280;45043;51.068;7.026;2023-03-25T11:44:04;99413.19;;;7.50;50.23
59272;BME280;45043;51.068;7.026;2023-03-25T11:47:08;99419.09;;;7.58;50.06
59272;BME280;45043;51.068;7.026;2023-03-25T11:50:23;99438.22;;;7.54;49.97
59272;BME280;45043;51.068;7.026;2023-03-25T11:53:26;99471.13;;;7.51;50.43
59272;BME280;45043;51.068;7.026;2023-03-25T11:56:33;99429.84;;;7.44;51.42
59272;BME280;45043;51.068;7.026;2023-03-25T11:59:46;99433.53;;;7.43;52.58
59272;BME280;45043;51.068;7.026;2023-03-25T12:02:47;99464.81;;;7.46;52.80
59272;BME280;45043;51.068;7.026;2023-03-25T12:06:15;99419.69;;;7.47;53.18
59272;BME280;45043;51.068;7.026;2023-03-25T12:09:16;99406.28;;;7.42;53.05
59272;BME280;45043;51.068;7.026;2023-03-25T12:12:32;99417.03;;;7.41;53.09
59272;BME280;45043;51.068;7.026;2023-03-25T12:15:56;99416.63;;;7.37;53.04
59272;BME280;45043;51.068;7.026;2023-03-25T12:19:16;99415.00;;;7.36;53.29
59272;BME280;45043;51.068;7.026;2023-03-25T12:23:02;99404.81;;;7.26;52.85
59272;BME280;45043;51.068;7.026;2023-03-25T12:26:12;99408.69;;;7.24;52.19
59272;BME280;45043;51.068;7.026;2023-03-25T12:36:18;99410.75;;;7.35;51.35
59272;BME280;45043;51.068;7.026;2023-03-25T12:46:16;99380.25;;;7.72;51.63
59272;BME280;45043;51.068;7.026;2023-03-25T12:49:41;99413.41;;;7.95;51.88
59272;BME280;45043;51.068;7.026;2023-03-25T12:53:02;99371.22;;;8.20;51.54
59272;BME280;45043;51.068;7.026;2023-03-25T12:56:33;99369.31;;;8.53;49.70
59272;BME280;45043;51.068;7.026;2023-03-25T12:59:50;99360.19;;;8.43;48.13
59272;BME280;45043;51.068;7.026;2023-03-25T13:10:12;99365.38;;;8.69;45.58
59272;BME280;45043;51.068;7.026;2023-03-25T13:13:22;99405.09;;;8.69;44.82
59272;BME280;45043;51.068;7.026;2023-03-25T13:16:27;99369.88;;;8.62;44.19
59272;BME280;45043;51.068;7.026;2023-03-25T13:19:31;99355.44;;;8.58;43.94
59272;BME280;45043;51.068;7.026;2023-03-25T13:22:44;99350.81;;;8.47;44.01
59272;BME280;45043;51.068;7.026;2023-03-25T13:25:58;99355.31;;;8.40;44.81
59272;BME280;45043;51.068;7.026;2023-03-25T13:29:23;99350.66;;;8.35;45.62
59272;BME280;45043;51.068;7.026;2023-03-25T13:32:33;99372.88;;;8.27;46.31
59272;BME280;45043;51.068;7.026;2023-03-25T13:38:55;99525.88;;;7.84;49.09
59272;BME280;45043;51.068;7.026;2023-03-25T13:42:06;99433.44;;;7.03;55.37
59272;BME280;45043;51.068;7.026;2023-03-25T13:45:20;99445.91;;;6.39;58.51
59272;BME280;45043;51.068;7.026;2023-03-25T13:51:30;99502.03;;;5.77;61.02
59272;BME280;45043;51.068;7.026;2023-03-25T13:54:57;99474.25;;;5.53;61.91
59272;BME280;45043;51.068;7.026;2023-03-25T13:58:11;99486.25;;;5.41;62.80
59272;BME280;45043;51.068;7.026;2023-03-25T14:11:39;99461.88;;;5.54;63.89
59272;BME280;45043;51.068;7.026;2023-03-25T14:14:48;99453.34;;;5.52;64.41
59272;BME280;45043;51.068;7.026;2023-03-25T14:17:51;99460.94;;;5.40;65.43
59272;BME280;45043;51.068;7.026;2023-03-25T14:20:53;99469.41;;;5.35;65.64
59272;BME280;45043;51.068;7.026;2023-03-25T14:24:48;99434.28;;;5.50;66.18
59272;BME280;45043;51.068;7.026;2023-03-25T14:27:34;99448.66;;;5.97;65.03
59272;BME280;45043;51.068;7.026;2023-03-25T14:30:36;99440.47;;;6.48;64.91
59272;BME280;45043;51.068;7.026;2023-03-25T14:43:45;99424.59;;;8.82;59.01
59272;BME280;45043;51.068;7.026;2023-03-25T14:47:24;99429.31;;;8.73;56.26
59272;BME280;45043;51.068;7.026;2023-03-25T14:53:22;99422.13;;;8.35;56.29
59272;BME280;45043;51.068;7.026;2023-03-25T14:56:25;99404.78;;;8.19;56.65
59272;BME280;45043;51.068;7.026;2023-03-25T14:59:40;99421.34;;;7.95;56.89
59272;BME280;45043;51.068;7.026;2023-03-25T15:02:43;99418.47;;;7.90;57.20
59272;BME280;45043;51.068;7.026;2023-03-25T15:05:54;99399.16;;;7.82;56.29
59272;BME280;45043;51.068;7.026;2023-03-25T15:08:57;99424.59;;;7.83;55.80
59272;BME280;45043;51.068;7.026;2023-03-25T15:12:03;99416.03;;;7.81;55.14
59272;BME280;45043;51.068;7.026;2023-03-25T15:15:27;99418.09;;;7.73;55.25
59272;BME280;45043;51.068;7.026;2023-03-25T15:25:17;99422.53;;;7.32;54.78
59272;BME280;45043;51.068;7.026;2023-03-25T15:28:21;99417.44;;;7.24;56.01
59272;BME280;45043;51.068;7.026;2023-03-25T15:38:14;99449.66;;;7.00;56.86
59272;BME280;45043;51.068;7.026;2023-03-25T15:55:04;99420.84;;;7.11;57.21
59272;BME280;45043;51.068;7.026;2023-03-25T15:58:12;99416.00;;;7.22;57.04
59272;BME280;45043;51.068;7.026;2023-03-25T16:01:29;99426.34;;;7.23;57.43
59272;BME280;45043;51.068;7.026;2023-03-25T16:04:40;99431.84;;;7.22;57.78
59272;BME280;45043;51.068;7.026;2023-03-25T16:07:43;99431.00;;;7.15;58.43
59272;BME280;45043;51.068;7.026;2023-03-25T16:10:45;99454.06;;;6.86;58.29
59272;BME280;45043;51.068;7.026;2023-03-25T16:13:46;99468.34;;;6.63;59.25
59272;BME280;45043;51.068;7.026;2023-03-25T16:16:50;99461.38;;;6.49;60.07
59272;BME280;45043;51.068;7.026;2023-03-25T16:19:54;99428.59;;;6.30;60.77
59272;BME280;45043;51.068;7.026;2023-03-25T16:22:57;99409.25;;;7.06;59.94
59272;BME280;45043;51.068;7.026;2023-03-25T16:25:58;99421.53;;;8.78;55.20
59272;BME280;45043;51.068;7.026;2023-03-25T16:29:07;99425.34;;;9.27;53.84
59272;BME280;45043;51.068;7.026;2023-03-25T16:32:17;99423.75;;;9.83;51.39
59272;BME280;45043;51.068;7.026;2023-03-25T16:35:26;99421.78;;;10.21;50.81
59272;BME280;45043;51.068;7.026;2023-03-25T16:38:27;99423.19;;;9.81;51.41
59272;BME280;45043;51.068;7.026;2023-03-25T16:41:29;99416.00;;;9.24;52.21
59272;BME280;45043;51.068;7.026;2023-03-25T16:44:30;99434.16;;;8.83;53.16
59272;BME280;45043;51.068;7.026;2023-03-25T16:47:31;99421.03;;;8.49;53.53
59272;BME280;45043;51.068;7.026;2023-03-25T16:50:35;99419.88;;;8.25;54.47
59272;BME280;45043;51.068;7.026;2023-03-25T16:53:36;99414.38;;;8.07;54.62
59272;BME280;45043;51.068;7.026;2023-03-25T16:56:42;99409.09;;;7.94;55.06
59272;BME280;45043;51.068;7.026;2023-03-25T16:59:45;99426.81;;;7.73;55.85
59272;BME280;45043;51.068;7.026;2023-03-25T17:02:47;99444.31;;;7.61;56.29
59272;BME280;45043;51.068;7.026;2023-03-25T17:05:54;99489.22;;;7.48;57.40
59272;BME280;45043;51.068;7.026;2023-03-25T17:08:58;99568.41;;;7.21;58.25
59272;BME280;45043;51.068;7.026;2023-03-25T17:12:01;99554.25;;;6.66;59.72
59272;BME280;45043;51.068;7.026;2023-03-25T17:15:05;99469.31;;;6.21;60.50
59272;BME280;45043;51.068;7.026;2023-03-25T17:18:12;99488.34;;;5.88;60.76
59272;BME280;45043;51.068;7.026;2023-03-25T17:21:21;99482.13;;;5.75;61.11
59272;BME280;45043;51.068;7.026;2023-03-25T17:24:25;99485.72;;;5.67;61.44
59272;BME280;45043;51.068;7.026;2023-03-25T17:27:34;99499.88;;;5.66;61.57
59272;BME280;45043;51.068;7.026;2023-03-25T17:30:37;99484.09;;;5.66;61.86
59272;BME280;45043;51.068;7.026;2023-03-25T17:33:46;99496.25;;;5.67;61.42
59272;BME280;45043;51.068;7.026;2023-03-25T17:36:49;99514.44;;;5.62;61.76
59272;BME280;45043;51.068;7.026;2023-03-25T17:40:00;99508.28;;;5.55;62.23
59272;BME280;45043;51.068;7.026;2023-03-25T17:43:01;99546.19;;;5.54;62.53
59272;BME280;45043;51.068;7.026;2023-03-25T17:46:04;99631.47;;;5.53;62.28
59272;BME280;45043;51.068;7.026;2023-03-25T17:49:13;99568.47;;;5.36;61.40
59272;BME280;45043;51.068;7.026;2023-03-25T17:52:15;99563.69;;;5.25;61.74
59272;BME280;45043;51.068;7.026;2023-03-25T17:55:16;99569.84;;;5.17;62.22
59272;BME280;45043;51.068;7.026;2023-03-25T17:58:18;99561.22;;;5.09;62.94
59272;BME280;45043;51.068;7.026;2023-03-25T18:01:19;99574.75;;;5.06;63.55
59272;BME280;45043;51.068;7.026;2023-03-25T18:04:21;99625.13;;;5.03;62.96
59272;BME280;45043;51.068;7.026;2023-03-25T18:07:21;99701.19;;;4.98;63.26
59272;BME280;45043;51.068;7.026;2023-03-25T18:10:22;99565.19;;;4.90;62.99
59272;BME280;45043;51.068;7.026;2023-03-25T18:13:25;99546.97;;;4.88;62.71
59272;BME280;45043;51.068;7.026;2023-03-25T18:16:26;99580.47;;;4.94;62.36
59272;BME280;45043;51.068;7.026;2023-03-25T18:19:27;99558.41;;;4.96;62.34
59272;BME280;45043;51.068;7.026;2023-03-25T18:22:31;99544.34;;;4.88;62.54
59272;BME280;45043;51.068;7.026;2023-03-25T18:25:31;99559.22;;;4.81;62.85
59272;BME280;45043;51.068;7.026;2023-03-25T18:28:33;99567.75;;;4.83;62.96
59272;BME280;45043;51.068;7.026;2023-03-25T18:31:35;99569.38;;;4.84;63.07
59272;BME280;45043;51.068;7.026;2023-03-25T18:34:35;99572.66;;;4.86;63.19